sensor_id;sensor_type;location;lat;lon;timestamp;pressure;altitude;pressure_sealevel;temperature;humidity
33554;BME280;19885;42.208;24.952;2023-11-22T00:00:43;99243.06;;;8.71;100.00
33554;BME280;19885;42.208;24.952;2023-11-22T00:03:08;99243.06;;;8.67;100.00
33554;BME280;19885;42.208;24.952;2023-11-22T00:05:33;99251.00;;;9.06;100.00
33554;BME280;19885;42.208;24.952;2023-11-22T00:07:59;99249.97;;;8.65;100.00
33554;BME280;19885;42.208;24.952;2023-11-22T00:10:24;99255.03;;;8.31;100.00
33554;BME280;19885;42.208;24.952;2023-11-22T00:12:49;99264.34;;;8.08;100.00
33554;BME280;19885;42.208;24.952;2023-11-22T00:15:15;99255.63;;;7.99;100.00
33554;BME280;19885;42.208;24.952;2023-11-22T00:17:43;99253.97;;;8.10;100.00
33554;BME280;19885;42.208;24.952;2023-11-22T00:20:09;99250.81;;;8.57;100.00
33554;BME280;19885;42.208;24.952;2023-11-22T00:22:34;99242.28;;;8.90;100.00
33554;BME280;19885;42.208;24.952;2023-11-22T00:25:00;99237.84;;;8.63;100.00
33554;BME280;19885;42.208;24.952;2023-11-22T00:27:27;99241.44;;;9.00;100.00
33554;BME280;19885;42.208;24.952;2023-11-22T00:29:55;99250.16;;;9.25;100.00
33554;BME280;19885;42.208;24.952;2023-11-22T00:32:20;99252.75;;;9.20;100.00
33554;BME280;19885;42.208;24.952;2023-11-22T00:34:45;99236.25;;;9.03;100.00
33554;BME280;19885;42.208;24.952;2023-11-22T00:37:10;99236.31;;;9.37;100.00
33554;BME280;19885;42.208;24.952;2023-11-22T00:39:39;99234.59;;;9.52;100.00
33554;BME280;19885;42.208;24.952;2023-11-22T00:42:04;99235.44;;;9.45;100.00
33554;BME280;19885;42.208;24.952;2023-11-22T00:44:30;99245.84;;;9.34;100.00
33554;BME280;19885;42.208;24.952;2023-11-22T00:46:55;99257.16;;;9.62;100.00
33554;BME280;19885;42.208;24.952;2023-11-22T00:49:22;99251.00;;;9.22;100.00
33554;BME280;19885;42.208;24.952;2023-11-22T00:51:47;99250.84;;;8.68;100.00
33554;BME280;19885;42.208;24.952;2023-11-22T00:54:13;99250.16;;;9.23;100.00
33554;BME280;19885;42.208;24.952;2023-11-22T00:56:38;99245.00;;;9.49;100.00
33554;BME280;19885;42.208;24.952;2023-11-22T00:59:03;99241.53;;;9.62;100.00
33554;BME280;19885;42.208;24.952;2023-11-22T01:01:29;99238.94;;;9.71;100.00
33554;BME280;19885;42.208;24.952;2023-11-22T01:03:54;99241.53;;;9.77;100.00
33554;BME280;19885;42.208;24.952;2023-11-22T01:06:19;99237.19;;;9.82;100.00
33554;BME280;19885;42.208;24.952;2023-11-22T01:08:45;99239.78;;;9.84;100.00
33554;BME280;19885;42.208;24.952;2023-11-22T01:11:10;99242.38;;;9.79;100.00
33554;BME280;19885;42.208;24.952;2023-11-22T01:13:35;99230.25;;;9.77;100.00
33554;BME280;19885;42.208;24.952;2023-11-22T01:16:10;99225.94;;;9.74;100.00
33554;BME280;19885;42.208;24.952;2023-11-22T01:18:35;99233.75;;;9.74;100.00
33554;BME280;19885;42.208;24.952;2023-11-22T01:21:01;99238.94;;;9.82;100.00
33554;BME280;19885;42.208;24.952;2023-11-22T01:23:26;99241.53;;;9.82;100.00
33554;BME280;19885;42.208;24.952;2023-11-22T01:25:53;99245.00;;;9.87;100.00
33554;BME280;19885;42.208;24.952;2023-11-22T01:28:18;99240.66;;;9.89;100.00
33554;BME280;19885;42.208;24.952;2023-11-22T01:30:44;99236.34;;;9.92;100.00
33554;BME280;19885;42.208;24.952;2023-11-22T01:33:12;99235.44;;;9.90;100.00
33554;BME280;19885;42.208;24.952;2023-11-22T01:35:37;99234.59;;;9.85;100.00
33554;BME280;19885;42.208;24.952;2023-11-22T01:38:09;99229.38;;;9.61;100.00
33554;BME280;19885;42.208;24.952;2023-11-22T01:40:34;99212.06;;;9.69;100.00
33554;BME280;19885;42.208;24.952;2023-11-22T01:43:00;99217.25;;;9.66;100.00
33554;BME280;19885;42.208;24.952;2023-11-22T01:45:27;99221.59;;;9.82;100.00
33554;BME280;19885;42.208;24.952;2023-11-22T01:47:53;99225.91;;;9.89;100.00
33554;BME280;19885;42.208;24.952;2023-11-22T01:50:19;99233.75;;;9.92;100.00
33554;BME280;19885;42.208;24.952;2023-11-22T01:52:44;99232.00;;;9.90;100.00
33554;BME280;19885;42.208;24.952;2023-11-22T01:55:10;99229.38;;;9.91;100.00
33554;BME280;19885;42.208;24.952;2023-11-22T01:57:35;99230.25;;;9.96;100.00
33554;BME280;19885;42.208;24.952;2023-11-22T02:00:04;99233.72;;;9.94;100.00
33554;BME280;19885;42.208;24.952;2023-11-22T02:02:33;99218.97;;;9.79;100.00
33554;BME280;19885;42.208;24.952;2023-11-22T02:05:00;99212.94;;;9.83;100.00
33554;BME280;19885;42.208;24.952;2023-11-22T02:07:27;99208.56;;;9.91;100.00
33554;BME280;19885;42.208;24.952;2023-11-22T02:09:52;99196.41;;;9.93;100.00
33554;BME280;19885;42.208;24.952;2023-11-22T02:12:18;99195.53;;;9.88;100.00
33554;BME280;19885;42.208;24.952;2023-11-22T02:14:44;99198.16;;;9.90;100.00
33554;BME280;19885;42.208;24.952;2023-11-22T02:17:09;99207.69;;;9.91;100.00
33554;BME280;19885;42.208;24.952;2023-11-22T02:19:35;99208.59;;;9.90;100.00
33554;BME280;19885;42.208;24.952;2023-11-22T02:22:02;99205.09;;;9.94;100.00
33554;BME280;19885;42.208;24.952;2023-11-22T02:24:30;99198.16;;;9.96;100.00
33554;BME280;19885;42.208;24.952;2023-11-22T02:26:55;99199.03;;;9.71;100.00
33554;BME280;19885;42.208;24.952;2023-11-22T02:29:20;99196.44;;;9.41;100.00
33554;BME280;19885;42.208;24.952;2023-11-22T02:31:46;99192.13;;;9.46;100.00
33554;BME280;19885;42.208;24.952;2023-11-22T02:34:11;99192.97;;;9.70;100.00
33554;BME280;19885;42.208;24.952;2023-11-22T02:36:36;99191.22;;;9.72;100.00
33554;BME280;19885;42.208;24.952;2023-11-22T02:39:05;99184.31;;;9.71;100.00
33554;BME280;19885;42.208;24.952;2023-11-22T02:41:31;99184.28;;;9.77;100.00
33554;BME280;19885;42.208;24.952;2023-11-22T02:43:56;99192.97;;;9.75;100.00
33554;BME280;19885;42.208;24.952;2023-11-22T02:46:22;99198.19;;;9.67;100.00
33554;BME280;19885;42.208;24.952;2023-11-22T02:48:48;99204.25;;;9.69;100.00
33554;BME280;19885;42.208;24.952;2023-11-22T02:51:14;99194.72;;;9.65;100.00
33554;BME280;19885;42.208;24.952;2023-11-22T02:53:39;99192.97;;;9.66;100.00
33554;BME280;19885;42.208;24.952;2023-11-22T02:56:09;99194.72;;;9.68;100.00
33554;BME280;19885;42.208;24.952;2023-11-22T02:58:35;99195.59;;;9.60;100.00
33554;BME280;19885;42.208;24.952;2023-11-22T03:01:01;99193.00;;;9.67;100.00
33554;BME280;19885;42.208;24.952;2023-11-22T03:03:26;99194.72;;;9.70;100.00
33554;BME280;19885;42.208;24.952;2023-11-22T03:05:54;99191.22;;;9.72;100.00
33554;BME280;19885;42.208;24.952;2023-11-22T03:08:20;99202.53;;;9.52;100.00
33554;BME280;19885;42.208;24.952;2023-11-22T03:10:45;99203.41;;;9.54;100.00
33554;BME280;19885;42.208;24.952;2023-11-22T03:13:11;99221.59;;;9.61;100.00
33554;BME280;19885;42.208;24.952;2023-11-22T03:15:36;99227.66;;;9.66;100.00
33554;BME280;19885;42.208;24.952;2023-11-22T03:18:01;99212.00;;;8.92;100.00
33554;BME280;19885;42.208;24.952;2023-11-22T03:20:28;99199.81;;;8.84;100.00
33554;BME280;19885;42.208;24.952;2023-11-22T03:22:53;99199.94;;;9.29;100.00
33554;BME280;19885;42.208;24.952;2023-11-22T03:25:22;99201.63;;;9.41;100.00
33554;BME280;19885;42.208;24.952;2023-11-22T03:27:48;99193.00;;;9.49;100.00
33554;BME280;19885;42.208;24.952;2023-11-22T03:30:13;99189.53;;;9.53;100.00
33554;BME280;19885;42.208;24.952;2023-11-22T03:32:40;99186.06;;;9.48;100.00
33554;BME280;19885;42.208;24.952;2023-11-22T03:35:06;99170.47;;;9.42;100.00
33554;BME280;19885;42.208;24.952;2023-11-22T03:37:32;99160.88;;;8.85;100.00
33554;BME280;19885;42.208;24.952;2023-11-22T03:39:57;99160.88;;;9.11;100.00
33554;BME280;19885;42.208;24.952;2023-11-22T03:42:22;99153.09;;;9.23;100.00
33554;BME280;19885;42.208;24.952;2023-11-22T03:44:48;99160.06;;;9.42;100.00
33554;BME280;19885;42.208;24.952;2023-11-22T03:47:14;99145.34;;;9.38;100.00
33554;BME280;19885;42.208;24.952;2023-11-22T03:49:40;99151.41;;;9.49;100.00
33554;BME280;19885;42.208;24.952;2023-11-22T03:52:05;99169.56;;;9.43;100.00
33554;BME280;19885;42.208;24.952;2023-11-22T03:54:31;99196.44;;;9.59;100.00
33554;BME280;19885;42.208;24.952;2023-11-22T03:56:57;99212.06;;;9.60;100.00
33554;BME280;19885;42.208;24.952;2023-11-22T03:59:23;99236.31;;;9.59;100.00
33554;BME280;19885;42.208;24.952;2023-11-22T04:01:49;99236.34;;;9.65;100.00
33554;BME280;19885;42.208;24.952;2023-11-22T04:04:14;99241.53;;;9.62;100.00
33554;BME280;19885;42.208;24.952;2023-11-22T04:06:40;99240.66;;;9.63;100.00
33554;BME280;19885;42.208;24.952;2023-11-22T04:09:05;99235.47;;;9.71;100.00
33554;BME280;19885;42.208;24.952;2023-11-22T04:11:30;99219.84;;;9.71;100.00
33554;BME280;19885;42.208;24.952;2023-11-22T04:13:56;99220.72;;;9.68;100.00
33554;BME280;19885;42.208;24.952;2023-11-22T04:16:21;99217.25;;;9.63;100.00
33554;BME280;19885;42.208;24.952;2023-11-22T04:18:47;99211.19;;;9.45;100.00
33554;BME280;19885;42.208;24.952;2023-11-22T04:21:12;99221.59;;;9.57;100.00
33554;BME280;19885;42.208;24.952;2023-11-22T04:23:37;99216.41;;;9.60;100.00
33554;BME280;19885;42.208;24.952;2023-11-22T04:26:03;99218.97;;;9.52;100.00
33554;BME280;19885;42.208;24.952;2023-11-22T04:28:31;99212.88;;;9.20;100.00
33554;BME280;19885;42.208;24.952;2023-11-22T04:30:56;99220.66;;;9.00;100.00
33554;BME280;19885;42.208;24.952;2023-11-22T04:33:22;99225.91;;;9.35;100.00
33554;BME280;19885;42.208;24.952;2023-11-22T04:35:48;99211.16;;;9.23;100.00
33554;BME280;19885;42.208;24.952;2023-11-22T04:38:13;99211.88;;;8.60;100.00
33554;BME280;19885;42.208;24.952;2023-11-22T04:40:38;99204.09;;;8.62;100.00
33554;BME280;19885;42.208;24.952;2023-11-22T04:43:04;99216.28;;;8.89;100.00
33554;BME280;19885;42.208;24.952;2023-11-22T04:45:29;99231.97;;;9.17;100.00
33554;BME280;19885;42.208;24.952;2023-11-22T04:47:57;99240.59;;;9.12;100.00
33554;BME280;19885;42.208;24.952;2023-11-22T04:50:23;99247.50;;;8.95;100.00
33554;BME280;19885;42.208;24.952;2023-11-22T04:52:51;99253.38;;;8.51;100.00
33554;BME280;19885;42.208;24.952;2023-11-22T04:55:16;99264.63;;;8.52;100.00
33554;BME280;19885;42.208;24.952;2023-11-22T04:57:41;99273.34;;;8.58;100.00
33554;BME280;19885;42.208;24.952;2023-11-22T05:00:07;99270.88;;;8.92;100.00
33554;BME280;19885;42.208;24.952;2023-11-22T05:02:32;99259.53;;;8.79;100.00
33554;BME280;19885;42.208;24.952;2023-11-22T05:04:58;99258.56;;;8.54;100.00
33554;BME280;19885;42.208;24.952;2023-11-22T05:07:23;99274.31;;;8.83;100.00
33554;BME280;19885;42.208;24.952;2023-11-22T05:09:48;99302.09;;;9.10;100.00
33554;BME280;19885;42.208;24.952;2023-11-22T05:12:13;99310.81;;;9.24;100.00
33554;BME280;19885;42.208;24.952;2023-11-22T05:14:41;99299.59;;;9.31;100.00
33554;BME280;19885;42.208;24.952;2023-11-22T05:17:08;99310.84;;;9.39;100.00
33554;BME280;19885;42.208;24.952;2023-11-22T05:19:34;99315.19;;;9.43;100.00
33554;BME280;19885;42.208;24.952;2023-11-22T05:21:59;99310.88;;;9.48;100.00
33554;BME280;19885;42.208;24.952;2023-11-22T05:24:24;99312.63;;;9.49;100.00
33554;BME280;19885;42.208;24.952;2023-11-22T05:26:50;99310.88;;;9.54;100.00
33554;BME280;19885;42.208;24.952;2023-11-22T05:29:15;99306.50;;;9.27;100.00
33554;BME280;19885;42.208;24.952;2023-11-22T05:31:41;99302.16;;;9.25;100.00
33554;BME280;19885;42.208;24.952;2023-11-22T05:34:06;99301.13;;;8.81;100.00
33554;BME280;19885;42.208;24.952;2023-11-22T05:36:32;99307.28;;;9.07;100.00
33554;BME280;19885;42.208;24.952;2023-11-22T05:38:58;99300.41;;;9.19;100.00
33554;BME280;19885;42.208;24.952;2023-11-22T05:41:30;99305.28;;;8.48;100.00
33554;BME280;19885;42.208;24.952;2023-11-22T05:43:56;99317.03;;;8.04;100.00
33554;BME280;19885;42.208;24.952;2023-11-22T05:46:22;99311.75;;;7.90;100.00
33554;BME280;19885;42.208;24.952;2023-11-22T05:48:53;99312.66;;;7.96;100.00
33554;BME280;19885;42.208;24.952;2023-11-22T05:51:19;99315.47;;;8.21;100.00
33554;BME280;19885;42.208;24.952;2023-11-22T05:53:45;99330.03;;;8.03;100.00
33554;BME280;19885;42.208;24.952;2023-11-22T05:56:10;99349.09;;;8.06;100.00
33554;BME280;19885;42.208;24.952;2023-11-22T05:58:37;99356.00;;;8.06;100.00
33554;BME280;19885;42.208;24.952;2023-11-22T06:01:04;99351.69;;;8.06;100.00
33554;BME280;19885;42.208;24.952;2023-11-22T06:03:29;99352.50;;;8.01;100.00
33554;BME280;19885;42.208;24.952;2023-11-22T06:05:54;99350.69;;;7.93;100.00
33554;BME280;19885;42.208;24.952;2023-11-22T06:08:20;99346.53;;;8.12;100.00
33554;BME280;19885;42.208;24.952;2023-11-22T06:10:45;99351.59;;;7.97;100.00
33554;BME280;19885;42.208;24.952;2023-11-22T06:13:11;99348.06;;;7.90;100.00
33554;BME280;19885;42.208;24.952;2023-11-22T06:15:37;99348.91;;;7.83;100.00
33554;BME280;19885;42.208;24.952;2023-11-22T06:18:03;99349.81;;;7.90;100.00
33554;BME280;19885;42.208;24.952;2023-11-22T06:20:28;99362.78;;;7.90;100.00
33554;BME280;19885;42.208;24.952;2023-11-22T06:22:53;99354.09;;;7.85;100.00
33554;BME280;19885;42.208;24.952;2023-11-22T06:25:18;99352.41;;;7.90;100.00
33554;BME280;19885;42.208;24.952;2023-11-22T06:27:44;99335.28;;;8.13;100.00
33554;BME280;19885;42.208;24.952;2023-11-22T06:30:10;99344.09;;;8.32;100.00
33554;BME280;19885;42.208;24.952;2023-11-22T06:32:35;99341.47;;;8.26;100.00
33554;BME280;19885;42.208;24.952;2023-11-22T06:35:00;99347.69;;;8.46;100.00
33554;BME280;19885;42.208;24.952;2023-11-22T06:37:26;99356.59;;;8.93;100.00
33554;BME280;19885;42.208;24.952;2023-11-22T06:39:52;99367.91;;;9.03;100.00
33554;BME280;19885;42.208;24.952;2023-11-22T06:42:17;99383.56;;;9.12;100.00
33554;BME280;19885;42.208;24.952;2023-11-22T06:44:44;99378.44;;;9.36;100.00
33554;BME280;19885;42.208;24.952;2023-11-22T06:47:13;99374.16;;;9.49;100.00
33554;BME280;19885;42.208;24.952;2023-11-22T06:49:38;99377.63;;;9.52;100.00
33554;BME280;19885;42.208;24.952;2023-11-22T06:52:03;99382.81;;;9.46;100.00
33554;BME280;19885;42.208;24.952;2023-11-22T06:54:29;99403.59;;;9.39;100.00
33554;BME280;19885;42.208;24.952;2023-11-22T06:56:54;99419.91;;;9.06;100.00
33554;BME280;19885;42.208;24.952;2023-11-22T06:59:19;99425.97;;;9.03;100.00
33554;BME280;19885;42.208;24.952;2023-11-22T07:01:45;99416.47;;;9.11;100.00
33554;BME280;19885;42.208;24.952;2023-11-22T07:04:10;99422.53;;;9.12;100.00
33554;BME280;19885;42.208;24.952;2023-11-22T07:06:36;99425.09;;;9.09;100.00
33554;BME280;19885;42.208;24.952;2023-11-22T07:09:03;99424.34;;;9.26;100.00
33554;BME280;19885;42.208;24.952;2023-11-22T07:11:28;99419.19;;;9.37;100.00
33554;BME280;19885;42.208;24.952;2023-11-22T07:13:55;99432.25;;;9.49;100.00
33554;BME280;19885;42.208;24.952;2023-11-22T07:16:21;99425.31;;;9.59;100.00
33554;BME280;19885;42.208;24.952;2023-11-22T07:18:46;99414.94;;;9.63;100.00
33554;BME280;19885;42.208;24.952;2023-11-22T07:21:11;99402.00;;;9.87;100.00
33554;BME280;19885;42.208;24.952;2023-11-22T07:23:37;99399.41;;;9.96;100.00
33554;BME280;19885;42.208;24.952;2023-11-22T07:26:03;99402.06;;;10.12;100.00
33554;BME280;19885;42.208;24.952;2023-11-22T07:28:28;99398.63;;;10.35;100.00
33554;BME280;19885;42.208;24.952;2023-11-22T07:30:53;99387.31;;;10.50;100.00
33554;BME280;19885;42.208;24.952;2023-11-22T07:33:19;99376.91;;;10.56;100.00
33554;BME280;19885;42.208;24.952;2023-11-22T07:35:45;99378.63;;;10.58;100.00
33554;BME280;19885;42.208;24.952;2023-11-22T07:38:11;99385.56;;;10.55;100.00
33554;BME280;19885;42.208;24.952;2023-11-22T07:40:39;99396.84;;;10.70;100.00
33554;BME280;19885;42.208;24.952;2023-11-22T07:43:04;99397.69;;;10.68;100.00
33554;BME280;19885;42.208;24.952;2023-11-22T07:45:30;99403.78;;;10.82;100.00
33554;BME280;19885;42.208;24.952;2023-11-22T07:47:55;99405.50;;;10.86;100.00
33554;BME280;19885;42.208;24.952;2023-11-22T07:50:24;99419.34;;;11.05;100.00
33554;BME280;19885;42.208;24.952;2023-11-22T07:52:49;99421.97;;;11.03;100.00
33554;BME280;19885;42.208;24.952;2023-11-22T07:55:15;99420.25;;;10.99;100.00
33554;BME280;19885;42.208;24.952;2023-11-22T07:57:43;99427.22;;;10.74;100.00
33554;BME280;19885;42.208;24.952;2023-11-22T08:00:08;99430.72;;;10.77;100.00
33554;BME280;19885;42.208;24.952;2023-11-22T08:02:36;99419.41;;;10.90;100.00
33554;BME280;19885;42.208;24.952;2023-11-22T08:05:04;99432.41;;;10.88;100.00
33554;BME280;19885;42.208;24.952;2023-11-22T08:07:34;99428.94;;;11.01;100.00
33554;BME280;19885;42.208;24.952;2023-11-22T08:10:00;99441.09;;;11.05;100.00
33554;BME280;19885;42.208;24.952;2023-11-22T08:12:34;99446.28;;;11.11;100.00
33554;BME280;19885;42.208;24.952;2023-11-22T08:14:59;99434.16;;;10.98;100.00
33554;BME280;19885;42.208;24.952;2023-11-22T08:17:25;99441.06;;;11.17;100.00
33554;BME280;19885;42.208;24.952;2023-11-22T08:19:50;99452.34;;;11.25;100.00
33554;BME280;19885;42.208;24.952;2023-11-22T08:22:18;99441.13;;;10.84;100.00
33554;BME280;19885;42.208;24.952;2023-11-22T08:24:43;99442.84;;;10.96;100.00
33554;BME280;19885;42.208;24.952;2023-11-22T08:27:09;99446.28;;;11.11;100.00
33554;BME280;19885;42.208;24.952;2023-11-22T08:29:34;99434.97;;;11.06;100.00
33554;BME280;19885;42.208;24.952;2023-11-22T08:31:59;99435.84;;;11.14;100.00
33554;BME280;19885;42.208;24.952;2023-11-22T08:34:28;99430.69;;;10.93;100.00
33554;BME280;19885;42.208;24.952;2023-11-22T08:36:53;99432.44;;;10.73;100.00
33554;BME280;19885;42.208;24.952;2023-11-22T08:39:19;99429.81;;;10.91;100.00
33554;BME280;19885;42.208;24.952;2023-11-22T08:41:44;99421.13;;;10.95;100.00
33554;BME280;19885;42.208;24.952;2023-11-22T08:44:10;99427.19;;;11.00;100.00
33554;BME280;19885;42.208;24.952;2023-11-22T08:46:35;99427.13;;;11.15;100.00
33554;BME280;19885;42.208;24.952;2023-11-22T08:49:02;99441.06;;;11.17;100.00
33554;BME280;19885;42.208;24.952;2023-11-22T08:51:28;99437.56;;;11.18;100.00
33554;BME280;19885;42.208;24.952;2023-11-22T08:53:53;99439.31;;;11.24;100.00
33554;BME280;19885;42.208;24.952;2023-11-22T08:56:18;99447.97;;;11.29;100.00
33554;BME280;19885;42.208;24.952;2023-11-22T08:58:47;99454.91;;;11.31;100.00
33554;BME280;19885;42.208;24.952;2023-11-22T09:01:12;99463.63;;;11.29;100.00
33554;BME280;19885;42.208;24.952;2023-11-22T09:03:39;99454.94;;;11.22;100.00
33554;BME280;19885;42.208;24.952;2023-11-22T09:06:07;99443.63;;;11.28;100.00
33554;BME280;19885;42.208;24.952;2023-11-22T09:08:32;99437.50;;;11.33;100.00
33554;BME280;19885;42.208;24.952;2023-11-22T09:10:58;99447.94;;;11.42;100.00
33554;BME280;19885;42.208;24.952;2023-11-22T09:13:23;99438.34;;;11.46;100.00
33554;BME280;19885;42.208;24.952;2023-11-22T09:15:49;99438.31;;;11.52;100.00
33554;BME280;19885;42.208;24.952;2023-11-22T09:18:15;99443.56;;;11.43;100.00
33554;BME280;19885;42.208;24.952;2023-11-22T09:20:44;99452.22;;;11.59;100.00
33554;BME280;19885;42.208;24.952;2023-11-22T09:23:09;99446.13;;;11.63;100.00
33554;BME280;19885;42.208;24.952;2023-11-22T09:25:34;99449.59;;;11.71;100.00
33554;BME280;19885;42.208;24.952;2023-11-22T09:28:01;99452.19;;;11.68;100.00
33554;BME280;19885;42.208;24.952;2023-11-22T09:30:27;99455.66;;;11.79;100.00
33554;BME280;19885;42.208;24.952;2023-11-22T09:35:38;99464.38;;;11.64;100.00
33554;BME280;19885;42.208;24.952;2023-11-22T09:38:05;99450.47;;;11.59;100.00
33554;BME280;19885;42.208;24.952;2023-11-22T09:40:36;99445.22;;;11.79;100.00
33554;BME280;19885;42.208;24.952;2023-11-22T09:43:04;99445.16;;;11.86;100.00
33554;BME280;19885;42.208;24.952;2023-11-22T09:45:30;99445.16;;;11.86;100.00
33554;BME280;19885;42.208;24.952;2023-11-22T09:47:55;99440.81;;;11.90;100.00
33554;BME280;19885;42.208;24.952;2023-11-22T09:50:40;99442.56;;;11.88;100.00
33554;BME280;19885;42.208;24.952;2023-11-22T09:53:11;99439.88;;;12.01;100.00
33554;BME280;19885;42.208;24.952;2023-11-22T09:55:37;99440.66;;;12.12;100.00
33554;BME280;19885;42.208;24.952;2023-11-22T09:58:02;99445.81;;;12.20;100.00
33554;BME280;19885;42.208;24.952;2023-11-22T10:00:28;99450.47;;;11.74;100.00
33554;BME280;19885;42.208;24.952;2023-11-22T10:02:55;99456.41;;;11.96;100.00
33554;BME280;19885;42.208;24.952;2023-11-22T10:05:21;99452.91;;;12.06;100.00
33554;BME280;19885;42.208;24.952;2023-11-22T10:07:46;99440.63;;;12.17;100.00
33554;BME280;19885;42.208;24.952;2023-11-22T10:10:15;99445.25;;;11.68;100.00
33554;BME280;19885;42.208;24.952;2023-11-22T10:12:43;99447.91;;;11.52;100.00
33554;BME280;19885;42.208;24.952;2023-11-22T10:15:12;99443.56;;;11.49;100.00
33554;BME280;19885;42.208;24.952;2023-11-22T10:17:38;99447.00;;;11.57;100.00
33554;BME280;19885;42.208;24.952;2023-11-22T10:20:03;99390.44;;;11.64;100.00
33554;BME280;19885;42.208;24.952;2023-11-22T10:22:29;99453.09;;;11.61;100.00
33554;BME280;19885;42.208;24.952;2023-11-22T10:24:58;99456.53;;;11.73;100.00
33554;BME280;19885;42.208;24.952;2023-11-22T10:27:24;99445.91;;;12.05;100.00
33554;BME280;19885;42.208;24.952;2023-11-22T10:29:51;99453.97;;;11.58;100.00
33554;BME280;19885;42.208;24.952;2023-11-22T10:32:16;99452.22;;;11.57;100.00
33554;BME280;19885;42.208;24.952;2023-11-22T10:34:42;99453.91;;;11.66;100.00
33554;BME280;19885;42.208;24.952;2023-11-22T10:37:07;99449.59;;;11.69;100.00
33554;BME280;19885;42.208;24.952;2023-11-22T10:39:34;99448.75;;;11.58;100.00
33554;BME280;19885;42.208;24.952;2023-11-22T10:42:00;99448.72;;;11.63;100.00
33554;BME280;19885;42.208;24.952;2023-11-22T10:44:26;99437.44;;;11.55;100.00
33554;BME280;19885;42.208;24.952;2023-11-22T10:46:51;99437.34;;;11.82;100.00
33554;BME280;19885;42.208;24.952;2023-11-22T10:49:17;99434.56;;;12.12;100.00
33554;BME280;19885;42.208;24.952;2023-11-22T10:51:43;99437.13;;;12.18;100.00
33554;BME280;19885;42.208;24.952;2023-11-22T10:54:10;99440.56;;;12.23;100.00
33554;BME280;19885;42.208;24.952;2023-11-22T10:56:39;99438.66;;;12.46;100.00
33554;BME280;19885;42.208;24.952;2023-11-22T10:59:09;99438.91;;;12.14;100.00
33554;BME280;19885;42.208;24.952;2023-11-22T11:01:34;99440.69;;;12.02;100.00
33554;BME280;19885;42.208;24.952;2023-11-22T11:04:01;99439.78;;;12.15;100.00
33554;BME280;19885;42.208;24.952;2023-11-22T11:06:31;99436.06;;;12.43;100.00
33554;BME280;19885;42.208;24.952;2023-11-22T11:08:59;99436.91;;;12.45;100.00
33554;BME280;19885;42.208;24.952;2023-11-22T11:11:25;99443.91;;;12.46;100.00
33554;BME280;19885;42.208;24.952;2023-11-22T11:13:51;99439.63;;;12.35;100.00
33554;BME280;19885;42.208;24.952;2023-11-22T11:16:16;99449.13;;;12.46;100.00
33554;BME280;19885;42.208;24.952;2023-11-22T11:18:42;99442.31;;;12.24;100.00
33554;BME280;19885;42.208;24.952;2023-11-22T11:21:08;99444.81;;;12.39;100.00
33554;BME280;19885;42.208;24.952;2023-11-22T11:23:38;99448.31;;;12.34;100.00
33554;BME280;19885;42.208;24.952;2023-11-22T11:26:36;99451.78;;;12.40;100.00
33554;BME280;19885;42.208;24.952;2023-11-22T11:28:54;99444.72;;;12.51;100.00
33554;BME280;19885;42.208;24.952;2023-11-22T11:31:20;99444.44;;;12.84;100.00
33554;BME280;19885;42.208;24.952;2023-11-22T11:38:46;99461.63;;;13.11;100.00
33554;BME280;19885;42.208;24.952;2023-11-22T11:41:14;99465.84;;;13.26;100.00
33554;BME280;19885;42.208;24.952;2023-11-22T11:43:43;99468.50;;;13.20;100.00
33554;BME280;19885;42.208;24.952;2023-11-22T11:46:10;99470.41;;;13.07;100.00
33554;BME280;19885;42.208;24.952;2023-11-22T11:48:36;99471.25;;;13.05;100.00
33554;BME280;19885;42.208;24.952;2023-11-22T11:51:03;99468.47;;;13.26;100.00
33554;BME280;19885;42.208;24.952;2023-11-22T11:53:29;99464.81;;;13.39;100.00
33554;BME280;19885;42.208;24.952;2023-11-22T11:55:56;99462.97;;;13.51;100.00
33554;BME280;19885;42.208;24.952;2023-11-22T11:58:22;99460.28;;;13.56;100.00
33554;BME280;19885;42.208;24.952;2023-11-22T12:00:50;99461.13;;;13.58;100.00
33554;BME280;19885;42.208;24.952;2023-11-22T12:03:15;99458.44;;;13.64;100.00
33554;BME280;19885;42.208;24.952;2023-11-22T12:05:45;99470.28;;;13.92;100.00
33554;BME280;19885;42.208;24.952;2023-11-22T12:08:11;99464.50;;;13.66;100.00
33554;BME280;19885;42.208;24.952;2023-11-22T12:10:40;99472.56;;;13.48;100.00
33554;BME280;19885;42.208;24.952;2023-11-22T12:13:05;99456.75;;;13.60;100.00
33554;BME280;19885;42.208;24.952;2023-11-22T12:15:32;99460.28;;;13.56;100.00
33554;BME280;19885;42.208;24.952;2023-11-22T12:17:58;99461.31;;;13.41;100.00
33554;BME280;19885;42.208;24.952;2023-11-22T12:20:24;99468.34;;;13.36;100.00
33554;BME280;19885;42.208;24.952;2023-11-22T12:22:51;99464.03;;;13.32;100.00
33554;BME280;19885;42.208;24.952;2023-11-22T12:25:16;99468.34;;;13.36;100.00
33554;BME280;19885;42.208;24.952;2023-11-22T12:27:42;99468.41;;;13.29;100.00
33554;BME280;19885;42.208;24.952;2023-11-22T12:30:08;99465.00;;;13.22;100.00
33554;BME280;19885;42.208;24.952;2023-11-22T12:32:38;99452.75;;;13.24;100.00
33554;BME280;19885;42.208;24.952;2023-11-22T12:35:04;99461.22;;;13.47;100.00
33554;BME280;19885;42.208;24.952;2023-11-22T12:37:30;99468.25;;;13.47;100.00
33554;BME280;19885;42.208;24.952;2023-11-22T12:39:56;99469.78;;;13.63;100.00
33554;BME280;19885;42.208;24.952;2023-11-22T12:42:21;99474.69;;;13.89;100.00
33554;BME280;19885;42.208;24.952;2023-11-22T12:44:48;99473.88;;;13.85;100.00
33554;BME280;19885;42.208;24.952;2023-11-22T12:47:14;99475.13;;;13.52;100.00